• Join FlightAware (Why Join?)
  • Login
  • US Flag 
06:38PM EDT


 

Airport Tracker/Info


-or-


 

Live Flight TrackerFlight Track Log ✈ N450S ✈ 03-May-2012 ✈ KSKY - KDLL

Flight Track Log - Related Links

Times and Time Zones

All times are in EDT time to prevent confusion due to time zone crossing. See the N450S flight status page for this flight to view local times or setup timezone preferences in your user account.

Time Position Orientation Groundspeed Altitude Reporting Facility
EDT Latitude Longitude Course Direction KTS MPH feet Rate Location/Type
02:52PM 41.4300 -82.6878 264° West 134 154 1,700  Level Cleveland Center
02:52PM 41.4272 -82.7239 276° West 144 166 2,500 1,500 Climbing Cleveland Center
02:53PM 41.4322 -82.7878 271° West 178 205 4,200 1,320 Climbing Cleveland Center
02:54PM 41.4331 -82.8514 273° West 180 207 5,300 900 Climbing Cleveland Center
02:55PM 41.4358 -82.9236 266° West 172 198 6,100 1,020 Climbing Cleveland Center
02:56PM 41.4322 -82.9928 273° West 186 214 7,400 1,200 Climbing Cleveland Center
02:57PM 41.4350 -83.0592 271° West 186 214 8,600 1,260 Climbing Cleveland Center
02:58PM 41.4356 -83.1258 276° West 186 214 10,000 1,200 Climbing Cleveland Center
02:59PM 41.4406 -83.1869 271° West 186 214 11,100 1,200 Climbing Cleveland Center
03:00PM 41.4411 -83.2506 272° West 181 208 12,500 1,200 Climbing Cleveland Center
03:01PM 41.4433 -83.3256 272° West 181 208 13,600 1,080 Climbing Cleveland Center
03:03PM 41.4464 -83.4642 270° West 181 208 15,900 1,080 Climbing Cleveland Center
03:04PM 41.4467 -83.5364 275° West 187 215 17,000 960 Climbing Cleveland Center
03:05PM 41.4511 -83.6058 283° West 192 221 17,900 900 Climbing Cleveland Center
03:06PM 41.4636 -83.6783 297° West 197 227 18,900 1,020 Climbing Cleveland Center
03:07PM 41.4889 -83.7433 296° West 197 227 20,000 900 Climbing Cleveland Center
03:08PM 41.5142 -83.8111 298° West 202 232 20,800 720 Climbing Cleveland Center
03:09PM 41.5375 -83.8706 295° West 202 232 21,500 600 Climbing Cleveland Center
03:10PM 41.5625 -83.9414 298° West 202 232 22,000 240 Climbing Cleveland Center
03:11PM 41.5917 -84.0150 295° West 215 247 22,000  Level Cleveland Center
03:12PM 41.6206 -84.0972 296° West 233 268 22,000  Level Cleveland Center
03:13PM 41.6511 -84.1794 297° West 239 275 22,000  Level Cleveland Center
03:14PM 41.6839 -84.2647 294° West 239 275 22,000  Level Cleveland Center
03:15PM 41.7106 -84.3469 297° West 239 275 22,000  Level Cleveland Center
03:16PM 41.7411 -84.4267 296° West 239 275 22,000  Level Cleveland Center
03:17PM 41.7717 -84.5092 296° West 244 281 22,000  Level Cleveland Center
03:18PM 41.8022 -84.5919 290° West 244 281 22,000  Level Cleveland Center
03:21PM 41.8556 -84.7939 288° West 243 280 22,000  Level Chicago Center
03:22PM 41.8756 -84.8761 286° West 238 274 22,000  Level Chicago Center
03:23PM 41.8906 -84.9450 289° West 243 280 22,000  Level Chicago Center
03:24PM 41.9153 -85.0408 278° West 243 280 22,000  Level Chicago Center
03:25PM 41.9247 -85.1297 278° West 243 280 22,000  Level Chicago Center
03:26PM 41.9342 -85.2156 278° West 238 274 22,000  Level Chicago Center
03:27PM 41.9436 -85.3044 280° West 238 274 22,000  Level Chicago Center
03:28PM 41.9550 -85.3903 280° West 238 274 22,000  Level Chicago Center
03:29PM 41.9664 -85.4817 278° West 238 274 22,000  Level Chicago Center
03:30PM 41.9756 -85.5733 276° West 238 274 22,000  Level Chicago Center
03:31PM 41.9825 -85.6597 280° West 238 274 22,000  Level Chicago Center
03:32PM 41.9936 -85.7428 278° West 238 274 22,000  Level Chicago Center
03:33PM 42.0025 -85.8289 280° West 238 274 22,000  Level Chicago Center
03:34PM 42.0136 -85.9150 278° West 238 274 22,000  Level Chicago Center
03:35PM 42.0219 -85.9928 278° West 238 274 22,000  Level Chicago Center
03:36PM 42.0308 -86.0789 280° West 238 274 22,000  Level Chicago Center
03:37PM 42.0417 -86.1650 278° West 238 274 22,000  Level Chicago Center
03:38PM 42.0500 -86.2486 277° West 238 274 22,000  Level Chicago Center
03:39PM 42.0586 -86.3378 280° West 238 274 22,000  Level Chicago Center
03:40PM 42.0692 -86.4211 277° West 238 274 22,000  Level Chicago Center
03:41PM 42.0781 -86.5186 277° West 238 274 22,000  Level Chicago Center
03:42PM 42.0861 -86.6022 281° West 238 274 22,000  Level Chicago Center
03:43PM 42.0989 -86.6942 277° West 238 274 22,000  Level Chicago Center
03:44PM 42.1069 -86.7806 279° West 243 280 22,000  Level Chicago Center
03:45PM 42.1172 -86.8669 276° West 238 274 22,000  Level Chicago Center
03:46PM 42.1233 -86.9506 279° West 238 274 22,000  Level Chicago Center
03:47PM 42.1333 -87.0400 277° West 238 274 22,000  Level Chicago Center
03:48PM 42.1414 -87.1236 279° West 238 274 22,000  Level Chicago Center
03:49PM 42.1514 -87.2100 275° West 238 274 22,000  Level Chicago Center
03:50PM 42.1569 -87.2883 279° West 238 274 22,000  Level Chicago Center
03:51PM 42.1667 -87.3750 278° West 238 274 22,000  Level Chicago Center
03:52PM 42.1767 -87.4669 276° West 238 274 22,000  Level Chicago Center
03:53PM 42.1844 -87.5650 277° West 238 274 22,000  Level Chicago Center
03:54PM 42.1919 -87.6461 278° West 238 274 22,000  Level Chicago Center
03:55PM 42.2017 -87.7383 278° West 243 280 22,000  Level Chicago Center
03:56PM 42.2111 -87.8278 276° West 243 280 22,000  Level Chicago Center
03:57PM 42.2186 -87.9200 286° West 249 287 22,000  Level Chicago Center
03:58PM 42.2364 -88.0067 292° West 249 287 22,000  Level Chicago Center
03:59PM 42.2622 -88.0931 292° West 249 287 22,000  Level Chicago Center
04:00PM 42.2883 -88.1794 290° West 249 287 22,000  Level Chicago Center
04:01PM 42.3119 -88.2661 296° West 249 287 22,000  Level Chicago Center
04:02PM 42.3419 -88.3497 290° West 235 270 22,000  Level Chicago Center
04:03PM 42.3656 -88.4367 292° West 235 270 22,000  Level Chicago Center
04:04PM 42.3892 -88.5178 292° West 235 270 22,000  Level Chicago Center
04:05PM 42.4147 -88.6019 290° West 235 270 22,000  Level Chicago Center
04:06PM 42.4361 -88.6831 293° West 235 270 22,000  Level Chicago Center
04:07PM 42.4614 -88.7644 291° West 230 265 22,000  Level Chicago Center
04:08PM 42.4850 -88.8486 290° West 230 265 22,000  Level Chicago Center
04:09PM 42.5081 -88.9331 292° West 236 272 22,000  Level Chicago Center
04:10PM 42.5333 -89.0175 291° West 236 272 22,000  Level Chicago Center
04:11PM 42.5567 -89.0989 311° West 241 277 22,000  Level Chicago Center
04:12PM 42.6025 -89.1694 315° West 236 272 22,000  Level Chicago Center
04:13PM 42.6525 -89.2369 315° West 249 287 22,000  Level Chicago Center
04:14PM 42.7047 -89.3075 314° West 254 292 22,000  Level Chicago Center
04:15PM 42.7506 -89.3725 315° West 254 292 22,000  Level Chicago Center
04:16PM 42.8006 -89.4403 313° West 249 287 22,000 -180 Level Chicago Center
04:17PM 42.8486 -89.5114 316° Northwest 249 287 21,700 -720 Descending Chicago Center
04:18PM 42.9025 -89.5822 316° Northwest 262 302 20,600 -1,200 Descending Chicago Center
04:19PM 42.9503 -89.6447 349° North 262 302 19,400 -1,500 Descending Chicago Center
04:20PM 43.0275 -89.6650 349° North 317 365 17,600 -2,040 Descending Chicago Center
04:21PM 43.1064 -89.6853 360° North 302 348 15,300 -2,340 Descending Chicago Center
04:22PM 43.1858 -89.6858 North 282 325 13,000 -2,400 Descending Chicago Center
04:23PM 43.2586 -89.6747 18° North 271 312 10,600 -2,460 Descending Chicago Center
04:24PM 43.3294 -89.6439 353° North 271 312 8,200 -2,340 Descending Chicago Center
04:25PM 43.3942 -89.6556 334° Northwest 241 277 6,000 -1,740 Descending Chicago Center
04:26PM 43.4544 -89.6958 334° Northwest 218 251 4,700 -1,320 Descending Chicago Center